METAR AND TAF INFORMATION
METAR FOR GCFV
ADDS - METARS form results

(2208 UTC 20 February 2020)
Data provider http://aviationweather.gov/metar/data/
 
METAR text: GCFV 202200Z 35009KT 9999 FEW028 18/13 Q1020
Conditions at: GCFV (FUERTEVENTURA AR, ES) observed 2200 UTC 20 February 2020
Temperature: 18.0°C (64°F)
Dewpoint: 13.0°C (55°F) [RH = 73%]
Pressure (altimeter): 30.12 inches Hg (1020.0 mb)
Winds: from the N (350 degrees) at 10 MPH (9 knots; 4.6 m/s)
Visibility: 6 or more miles (10+ km)
Ceiling: at least 12,000 feet AGL
Clouds: few clouds at 2800 feet AGL
Weather: no significant weather observed at this time

METAR text: GCFV 202130Z 36010KT 9999 FEW028 18/13 Q1020
Conditions at: GCFV (FUERTEVENTURA AR, ES) observed 2130 UTC 20 February 2020
Temperature: 18.0°C (64°F)
Dewpoint: 13.0°C (55°F) [RH = 73%]
Pressure (altimeter): 30.12 inches Hg (1020.0 mb)
Winds: from the N (360 degrees) at 12 MPH (10 knots; 5.1 m/s)
Visibility: 6 or more miles (10+ km)
Ceiling: at least 12,000 feet AGL
Clouds: few clouds at 2800 feet AGL
Weather: no significant weather observed at this time

Forecast for: GCFV (FUERTEVENTURA AR, ES)
Text: TAF GCFV 202000Z 2021/2121 34009KT 9999 BKN030 TX21/2114Z TN15/2106Z
Forecast period: 2100 UTC 20 February 2020 to 2100 UTC 21 February 2020
Forecast type: FROM: standard forecast or significant change
Winds: from the NNW (340 degrees) at 10 MPH (9 knots; 4.6 m/s)
Visibility: 6 or more miles 10+ km)
Ceiling: 3000 feet AGL
Clouds: broken clouds at 3000 feet AGL
Weather: no significant weather forecast for this period
Text: TEMPO 2021/2102 04010KT
Forecast period: 2100 UTC 20 February 2020 to 0200 UTC 21 February 2020
Forecast type: TEMPORARY: The following changes expected for less than half the time period
Winds: from the NE (40 degrees) at 12 MPH (10 knots; 5.1 m/s)
Visibility: missing
Ceiling: unknown
Clouds: missing
Weather: no significant weather forecast for this period

 AIRPORT MAP

 RUNWAY INFORMATION
Runway 01 Runway length 7874 ft Runway width 148 ft
Runway elevation 37 ft Runway displaced threshold 0 ft Runway heading 2
Runway 19 Runway length 7874 ft Runway width 148 ft
Runway elevation 75 ft Runway displaced threshold 0 ft Runway heading 182

 AIRPORT FREQUENCIES
Type APP Name CANARIAS A Frequency 129.3 MHZ
Type ATIS Name ATIS Frequency 118.65 MHZ
Type GND Name GND Frequency 121.7 MHZ
Type TWR Name TWR Frequency 118.5 MHZ

 AIRPORT NEAR NAVIGATION AIDS
Type VOR-DME Name Fuerteventura Frequency 114100 KHZ



Powered by Virtual Airlines Manager [v2.6.2]